createdAt,value
2022-08-22T00:00:22.117Z,101031.41
2022-08-22T00:01:26.540Z,101023.38
2022-08-22T00:02:34.298Z,101017.72
2022-08-22T00:02:57.557Z,101059.66
2022-08-22T00:03:04.494Z,101040.34
2022-08-22T00:03:06.741Z,101036.66
2022-08-22T00:03:07.585Z,101033.75
2022-08-22T00:03:09.242Z,101055.41
2022-08-22T00:03:39.644Z,101015.03
2022-08-22T00:04:48.671Z,101025.22
2022-08-22T00:05:54.001Z,101034.09
2022-08-22T00:06:59.809Z,101010.72
2022-08-22T00:07:58.795Z,101024.41
2022-08-22T00:09:20.601Z,101031.41
2022-08-22T00:10:27.842Z,101013.91
2022-08-22T00:11:46.544Z,101034.84
2022-08-22T00:12:58.130Z,101036.69
2022-08-22T00:14:07.392Z,101032.94
2022-08-22T00:15:13.200Z,101044.72
2022-08-22T00:16:31.549Z,101027.00
2022-08-22T00:17:35.332Z,101045.81
2022-08-22T00:18:34.934Z,101046.59
2022-08-22T00:19:48.884Z,101047.09
2022-08-22T00:20:43.321Z,101046.00
2022-08-22T00:21:40.219Z,101021.81
2022-08-22T00:22:40.107Z,101036.28
2022-08-22T00:23:38.774Z,101046.53
2022-08-22T00:24:39.422Z,101021.22
2022-08-22T00:25:51.321Z,101045.41
2022-08-22T00:26:51.235Z,101042.44
2022-08-22T00:28:10.481Z,101047.50
2022-08-22T00:29:08.699Z,101018.50
2022-08-22T00:30:14.324Z,101056.34
2022-08-22T00:31:15.535Z,101034.03
2022-08-22T00:32:18.802Z,101048.28
2022-08-22T00:33:34.529Z,101053.63
2022-08-22T00:34:40.006Z,101047.41
2022-08-22T00:35:42.937Z,101043.38
2022-08-22T00:36:53.169Z,101045.44
2022-08-22T00:37:47.493Z,101035.50
2022-08-22T00:38:42.248Z,101028.00
2022-08-22T00:39:39.251Z,101026.06
2022-08-22T00:40:59.672Z,101046.75
2022-08-22T00:41:51.919Z,101042.72
2022-08-22T00:42:53.577Z,101045.91
2022-08-22T00:43:56.560Z,101046.22
2022-08-22T00:45:04.635Z,101043.78
2022-08-22T00:46:21.358Z,101022.81
2022-08-22T00:47:29.198Z,101041.09
2022-08-22T00:48:29.670Z,101042.41
2022-08-22T00:49:48.230Z,101043.47
2022-08-22T00:50:52.769Z,101041.31
2022-08-22T00:51:51.155Z,101046.94
2022-08-22T00:52:58.865Z,101039.16
2022-08-22T00:54:04.526Z,101042.38
2022-08-22T00:55:16.302Z,101039.97
2022-08-22T00:56:42.458Z,101047.72
2022-08-22T00:57:56.864Z,101044.00
2022-08-22T00:58:46.326Z,101046.38
2022-08-22T00:59:38.630Z,101047.16
2022-08-22T01:00:29.419Z,101038.88
2022-08-22T01:01:34.572Z,101052.00
2022-08-22T01:02:33.376Z,101049.59
2022-08-22T01:04:03.958Z,101049.81
2022-08-22T01:05:18.308Z,101041.00
2022-08-22T01:06:39.828Z,101036.97
2022-08-22T01:08:08.167Z,101045.03
2022-08-22T01:09:17.966Z,101043.41
2022-08-22T01:10:29.001Z,101046.84
2022-08-22T01:11:30.595Z,101040.69
2022-08-22T01:12:52.331Z,101049.78
2022-08-22T01:14:03.490Z,101039.34
2022-08-22T01:15:06.314Z,101035.56
2022-08-22T01:16:17.242Z,101021.56
2022-08-22T01:17:39.229Z,101034.72
2022-08-22T01:19:11.580Z,101036.34
2022-08-22T01:20:23.693Z,101047.06
2022-08-22T01:22:00.012Z,101048.13
2022-08-22T01:22:49.178Z,101038.47
2022-08-22T01:24:00.976Z,101037.19
2022-08-22T01:25:07.395Z,101038.25
2022-08-22T01:26:17.126Z,101034.72
2022-08-22T01:27:32.218Z,101022.84
2022-08-22T01:28:55.721Z,101040.78
2022-08-22T01:30:03.279Z,101041.56
2022-08-22T01:31:38.938Z,101037.16
2022-08-22T01:32:31.818Z,101031.81
2022-08-22T01:33:49.077Z,101033.50
2022-08-22T01:35:05.097Z,101012.47
2022-08-22T01:36:14.156Z,101032.34
2022-08-22T01:37:12.816Z,101038.53
2022-08-22T01:37:59.564Z,101030.22
2022-08-22T01:39:00.924Z,101034.19
2022-08-22T01:40:25.268Z,101026.94
2022-08-22T01:41:31.744Z,101029.56
2022-08-22T01:42:39.839Z,101025.00
2022-08-22T01:44:00.728Z,101028.44
2022-08-22T01:45:03.832Z,101030.00
2022-08-22T01:46:09.436Z,101027.03
2022-08-22T01:47:05.834Z,101025.13
2022-08-22T01:48:18.974Z,101014.59
2022-08-22T01:49:31.577Z,101015.75
2022-08-22T01:50:38.440Z,101017.06
2022-08-22T01:51:37.693Z,101028.63
2022-08-22T01:52:44.757Z,100989.72
2022-08-22T01:53:56.504Z,100994.47
2022-08-22T01:54:54.773Z,101029.94
2022-08-22T01:55:59.981Z,101021.38
2022-08-22T01:56:48.068Z,101013.81
2022-08-22T01:58:12.450Z,101006.53
2022-08-22T01:59:14.891Z,101010.56
2022-08-22T02:00:17.411Z,101022.94
2022-08-22T02:01:32.516Z,101015.44
2022-08-22T02:02:37.556Z,101021.56
2022-08-22T02:03:59.364Z,101021.53
2022-08-22T02:05:04.244Z,101022.88
2022-08-22T02:06:02.027Z,101019.41
2022-08-22T02:07:14.133Z,101020.72
2022-08-22T02:08:14.861Z,101019.81
2022-08-22T02:09:32.367Z,101017.72
2022-08-22T02:10:40.518Z,101020.16
2022-08-22T02:12:13.860Z,101020.16
2022-08-22T02:13:14.332Z,101020.72
2022-08-22T02:14:25.384Z,101018.84
2022-08-22T02:15:14.745Z,101018.84
2022-08-22T02:16:38.683Z,101018.59
2022-08-22T02:17:31.774Z,101000.81
2022-08-22T02:18:33.475Z,100999.13
2022-08-22T02:19:30.962Z,101021.78
2022-08-22T02:20:31.733Z,101017.47
2022-08-22T02:21:39.944Z,101011.53
2022-08-22T02:22:59.423Z,101025.00
2022-08-22T02:24:03.157Z,101016.47
2022-08-22T02:25:04.352Z,101004.13
2022-08-22T02:26:08.251Z,101019.16
2022-08-22T02:27:05.077Z,101007.69
2022-08-22T02:28:06.682Z,100992.84
2022-08-22T02:29:28.705Z,101018.47
2022-08-22T02:30:20.770Z,100986.31
2022-08-22T02:31:23.052Z,100982.25
2022-08-22T02:32:33.146Z,101008.34
2022-08-22T02:33:38.568Z,101005.88
2022-08-22T02:35:12.909Z,100996.50
2022-08-22T02:36:07.357Z,100987.41
2022-08-22T02:37:07.240Z,101000.31
2022-08-22T02:38:15.973Z,101005.41
2022-08-22T02:39:06.927Z,101008.06
2022-08-22T02:40:05.941Z,100975.84
2022-08-22T02:41:21.752Z,100971.56
2022-08-22T02:42:18.911Z,101011.00
2022-08-22T02:43:18.421Z,101004.03
2022-08-22T02:44:19.801Z,100984.94
2022-08-22T02:45:15.636Z,100997.66
2022-08-22T02:46:31.619Z,100999.81
2022-08-22T02:47:33.066Z,100986.31
2022-08-22T02:48:19.567Z,100998.13
2022-08-22T02:49:27.386Z,100996.78
2022-08-22T02:50:38.215Z,100995.97
2022-08-22T02:51:51.450Z,100992.47
2022-08-22T02:52:56.815Z,100993.00
2022-08-22T02:54:07.212Z,100982.97
2022-08-22T02:55:03.403Z,101001.03
2022-08-22T02:56:11.510Z,100989.50
2022-08-22T02:57:14.035Z,100991.44
2022-08-22T02:58:21.023Z,100971.00
2022-08-22T02:59:13.579Z,100992.47
2022-08-22T03:00:30.996Z,100987.09
2022-08-22T03:01:29.712Z,100996.16
2022-08-22T03:02:38.078Z,100981.31
2022-08-22T03:03:28.838Z,100980.53
2022-08-22T03:04:50.853Z,100982.09
2022-08-22T03:05:39.790Z,100986.97
2022-08-22T03:06:39.205Z,100984.03
2022-08-22T03:07:36.436Z,100988.09
2022-08-22T03:08:32.808Z,100989.38
2022-08-22T03:09:31.996Z,100981.88
2022-08-22T03:10:26.058Z,100965.50
2022-08-22T03:11:29.923Z,100969.47
2022-08-22T03:12:47.355Z,100980.44
2022-08-22T03:13:57.515Z,100967.19
2022-08-22T03:15:16.331Z,100975.31
2022-08-22T03:16:41.045Z,100982.50
2022-08-22T03:17:38.369Z,100962.59
2022-08-22T03:18:32.873Z,100978.72
2022-08-22T03:19:31.566Z,100957.44
2022-08-22T03:20:41.389Z,100977.34
2022-08-22T03:21:35.887Z,100957.19
2022-08-22T03:22:27.944Z,100981.91
2022-08-22T03:23:42.387Z,100985.63
2022-08-22T03:24:44.285Z,100988.53
2022-08-22T03:25:43.322Z,100979.16
2022-08-22T03:26:43.747Z,100980.47
2022-08-22T03:27:50.512Z,100983.69
2022-08-22T03:29:02.988Z,100965.09
2022-08-22T03:30:01.098Z,100988.50
2022-08-22T03:30:50.744Z,100991.94
2022-08-22T03:31:37.967Z,100966.19
2022-08-22T03:32:49.278Z,100983.94
2022-08-22T03:33:35.894Z,100984.19
2022-08-22T03:34:27.043Z,100968.06
2022-08-22T03:35:26.399Z,100983.31
2022-08-22T03:36:15.867Z,100989.47
2022-08-22T03:37:05.305Z,100985.44
2022-08-22T03:38:08.977Z,100981.91
2022-08-22T03:39:18.447Z,100967.44
2022-08-22T03:40:19.954Z,100977.91
2022-08-22T03:41:23.832Z,100982.72
2022-08-22T03:42:17.912Z,100981.34
2022-08-22T03:43:37.874Z,100982.66
2022-08-22T03:44:58.876Z,100975.69
2022-08-22T03:46:07.616Z,100980.72
2022-08-22T03:47:18.118Z,100980.16
2022-08-22T03:48:35.559Z,100977.16
2022-08-22T03:50:01.445Z,100985.19
2022-08-22T03:51:11.560Z,100952.66
2022-08-22T03:52:15.005Z,100973.38
2022-08-22T03:53:26.432Z,100970.22
2022-08-22T03:54:37.604Z,100952.97
2022-08-22T03:55:33.255Z,100971.78
2022-08-22T03:56:57.479Z,100972.88
2022-08-22T03:58:04.427Z,100957.63
2022-08-22T03:59:10.161Z,100972.72
2022-08-22T04:00:21.299Z,100970.31
2022-08-22T04:01:28.363Z,100970.00
2022-08-22T04:02:44.309Z,100968.13
2022-08-22T04:04:18.978Z,100948.75
2022-08-22T04:05:18.744Z,100970.03
2022-08-22T04:06:35.247Z,100969.22
2022-08-22T04:07:42.718Z,100969.00
2022-08-22T04:08:58.676Z,100971.66
2022-08-22T04:10:14.200Z,100972.47
2022-08-22T04:11:25.404Z,100972.72
2022-08-22T04:12:23.994Z,100978.59
2022-08-22T04:13:29.204Z,100978.59
2022-08-22T04:14:35.618Z,100972.47
2022-08-22T04:15:44.143Z,100985.56
2022-08-22T04:17:08.069Z,100981.34
2022-08-22T04:18:19.869Z,100966.50
2022-08-22T04:19:32.473Z,100977.00
2022-08-22T04:20:40.416Z,100982.56
2022-08-22T04:21:57.305Z,100978.06
2022-08-22T04:23:15.998Z,100977.81
2022-08-22T04:24:35.805Z,100980.28
2022-08-22T04:26:10.822Z,100973.81
2022-08-22T04:27:26.308Z,100949.06
2022-08-22T04:28:28.818Z,100949.38
2022-08-22T04:29:40.680Z,100972.53
2022-08-22T04:30:50.658Z,100977.84
2022-08-22T04:32:14.837Z,100964.47
2022-08-22T04:33:22.143Z,100944.53
2022-08-22T04:34:28.077Z,100970.69
2022-08-22T04:35:35.719Z,100971.97
2022-08-22T04:36:40.427Z,100972.25
2022-08-22T04:37:40.436Z,100945.72
2022-08-22T04:38:44.425Z,100969.06
2022-08-22T04:39:45.158Z,100942.47
2022-08-22T04:40:43.438Z,100965.88
2022-08-22T04:41:51.623Z,100955.72
2022-08-22T04:43:06.179Z,100966.44
2022-08-22T04:44:06.443Z,100956.81
2022-08-22T04:45:02.394Z,100954.88
2022-08-22T04:45:54.298Z,100950.63
2022-08-22T04:46:53.361Z,100966.25
2022-08-22T04:48:07.551Z,100966.56
2022-08-22T04:49:05.863Z,100944.53
2022-08-22T04:49:58.698Z,100958.50
2022-08-22T04:51:19.142Z,100962.16
2022-08-22T04:52:35.543Z,100969.38
2022-08-22T04:53:28.060Z,100972.63
2022-08-22T04:54:29.688Z,100968.09
2022-08-22T04:55:52.320Z,100943.88
2022-08-22T04:57:19.391Z,100975.34
2022-08-22T04:58:16.032Z,100974.63
2022-08-22T04:59:16.860Z,100979.44
2022-08-22T05:00:08.468Z,100980.78
2022-08-22T05:01:07.217Z,100974.97
2022-08-22T05:01:57.566Z,100970.94
2022-08-22T05:02:50.487Z,100980.13
2022-08-22T05:03:45.788Z,100964.28
2022-08-22T05:04:36.754Z,100980.19
2022-08-22T05:05:37.783Z,100980.22
2022-08-22T05:06:30.358Z,100990.41
2022-08-22T05:07:28.646Z,100969.78
2022-08-22T05:08:31.833Z,100978.72
2022-08-22T05:09:25.767Z,100986.00
2022-08-22T05:10:37.599Z,100992.16
2022-08-22T05:11:30.551Z,100950.56
2022-08-22T05:12:31.087Z,100992.25
2022-08-22T05:13:22.620Z,100992.28
2022-08-22T05:14:22.750Z,100980.50
2022-08-22T05:15:22.996Z,100968.72
2022-08-22T05:16:23.763Z,100984.84
2022-08-22T05:17:22.981Z,100987.84
2022-08-22T05:18:20.957Z,101001.03
2022-08-22T05:19:23.028Z,100991.91
2022-08-22T05:20:21.205Z,100982.28
2022-08-22T05:21:13.906Z,100997.84
2022-08-22T05:22:03.476Z,100996.28
2022-08-22T05:23:00.239Z,101007.84
2022-08-22T05:23:58.628Z,100982.88
2022-08-22T05:24:51.993Z,101003.31
2022-08-22T05:25:42.905Z,101009.22
2022-08-22T05:26:43.290Z,100992.03
2022-08-22T05:27:39.127Z,100978.59
2022-08-22T05:28:35.023Z,101011.91
2022-08-22T05:29:30.133Z,101011.94
2022-08-22T05:30:28.072Z,100982.16
2022-08-22T05:31:26.366Z,100998.03
2022-08-22T05:32:32.558Z,100978.47
2022-08-22T05:33:30.025Z,101004.31
2022-08-22T05:34:22.644Z,100988.16
2022-08-22T05:35:10.508Z,100994.88
2022-08-22T05:36:11.845Z,100996.03
2022-08-22T05:37:14.336Z,101014.03
2022-08-22T05:38:06.301Z,101010.00
2022-08-22T05:39:02.588Z,100989.66
2022-08-22T05:39:57.876Z,101003.38
2022-08-22T05:40:59.675Z,100984.81
2022-08-22T05:41:53.163Z,100983.19
2022-08-22T05:42:40.100Z,101005.78
2022-08-22T05:43:27.805Z,100993.44
2022-08-22T05:44:27.982Z,100991.03
2022-08-22T05:45:18.987Z,100984.56
2022-08-22T05:46:14.688Z,101006.31
2022-08-22T05:47:20.086Z,100988.06
2022-08-22T05:48:17.955Z,100990.50
2022-08-22T05:49:16.153Z,100980.81
2022-08-22T05:50:36.973Z,101003.91
2022-08-22T05:52:04.706Z,101006.88
2022-08-22T05:53:10.833Z,101003.13
2022-08-22T05:54:15.152Z,100982.19
2022-08-22T05:55:25.708Z,101003.44
2022-08-22T05:56:22.572Z,101005.06
2022-08-22T05:57:31.581Z,100994.84
2022-08-22T05:58:41.495Z,101013.91
2022-08-22T05:59:35.073Z,100991.38
2022-08-22T06:00:26.970Z,100981.47
2022-08-22T06:01:25.762Z,101000.28
2022-08-22T06:02:21.557Z,100979.88
2022-08-22T06:03:16.233Z,101011.00
2022-08-22T06:04:21.209Z,100997.91
2022-08-22T06:05:12.134Z,100977.50
2022-08-22T06:06:06.818Z,100985.00
2022-08-22T06:07:08.519Z,101008.38
2022-08-22T06:08:05.185Z,101008.66
2022-08-22T06:09:12.017Z,100992.56
2022-08-22T06:10:25.503Z,100989.88
2022-08-22T06:11:33.584Z,101009.72
2022-08-22T06:12:43.143Z,101007.06
2022-08-22T06:13:41.315Z,100984.53
2022-08-22T06:14:48.074Z,100996.88
2022-08-22T06:16:05.669Z,101004.13
2022-08-22T06:17:12.168Z,100995.28
2022-08-22T06:18:07.206Z,101009.81
2022-08-22T06:18:57.392Z,101018.91
2022-08-22T06:19:50.678Z,101015.72
2022-08-22T06:21:02.472Z,101016.78
2022-08-22T06:21:54.238Z,101002.84
2022-08-22T06:22:51.614Z,101000.97
2022-08-22T06:23:56.606Z,100995.59
2022-08-22T06:24:44.877Z,101012.25
2022-08-22T06:25:39.587Z,101021.91
2022-08-22T06:26:35.137Z,101013.84
2022-08-22T06:27:26.954Z,101022.16
2022-08-22T06:28:25.052Z,101012.50
2022-08-22T06:29:30.294Z,101038.25
2022-08-22T06:30:19.064Z,101020.53
2022-08-22T06:31:22.246Z,101009.81
2022-08-22T06:32:15.889Z,101023.47
2022-08-22T06:33:08.349Z,101005.22
2022-08-22T06:34:09.368Z,101035.53
2022-08-22T06:35:04.202Z,101034.16
2022-08-22T06:36:20.551Z,101025.03
2022-08-22T06:37:17.896Z,101038.19
2022-08-22T06:38:05.223Z,101036.28
2022-08-22T06:38:54.695Z,101030.44
2022-08-22T06:39:49.248Z,101036.56
2022-08-22T06:40:36.187Z,101028.25
2022-08-22T06:41:28.469Z,101027.44
2022-08-22T06:42:29.745Z,101018.59
2022-08-22T06:43:18.576Z,101031.41
2022-08-22T06:44:10.146Z,101016.41
2022-08-22T06:45:12.008Z,101024.19
2022-08-22T06:45:59.666Z,101020.34
2022-08-22T06:46:50.074Z,101008.31
2022-08-22T06:47:43.591Z,101028.13
2022-08-22T06:48:38.170Z,101031.88
2022-08-22T06:49:27.390Z,101009.59
2022-08-22T06:50:25.138Z,101040.72
2022-08-22T06:51:18.924Z,101031.34
2022-08-22T06:52:15.055Z,101015.50
2022-08-22T06:53:18.752Z,101006.94
2022-08-22T06:54:14.533Z,101027.00
2022-08-22T06:55:09.165Z,101013.91
2022-08-22T06:56:02.600Z,101019.75
2022-08-22T06:56:55.325Z,101029.16
2022-08-22T06:58:03.505Z,101031.56
2022-08-22T06:58:56.479Z,101034.53
2022-08-22T06:59:45.963Z,101013.91
2022-08-22T07:00:35.643Z,101018.72
2022-08-22T07:01:39.367Z,101005.84
2022-08-22T07:02:38.200Z,101031.59
2022-08-22T07:03:52.951Z,101025.66
2022-08-22T07:04:40.853Z,101027.28
2022-08-22T07:05:34.231Z,101024.59
2022-08-22T07:06:35.207Z,101002.06
2022-08-22T07:07:26.491Z,101027.00
2022-08-22T07:08:21.424Z,101019.50
2022-08-22T07:09:24.102Z,101021.63
2022-08-22T07:10:15.914Z,101015.97
2022-08-22T07:11:25.954Z,101014.59
2022-08-22T07:12:21.572Z,101025.63
2022-08-22T07:13:16.415Z,101002.56
2022-08-22T07:14:05.645Z,101025.06
2022-08-22T07:14:57.679Z,100998.75
2022-08-22T07:15:54.474Z,100989.91
2022-08-22T07:17:04.619Z,101019.34
2022-08-22T07:17:59.606Z,100997.91
2022-08-22T07:18:50.688Z,101015.31
2022-08-22T07:19:45.894Z,100988.78
2022-08-22T07:20:45.580Z,100999.50
2022-08-22T07:21:47.157Z,101016.09
2022-08-22T07:22:37.371Z,100993.53
2022-08-22T07:23:41.954Z,100998.13
2022-08-22T07:24:32.764Z,100998.88
2022-08-22T07:25:20.601Z,101018.69
2022-08-22T07:26:25.477Z,101017.03
2022-08-22T07:27:37.468Z,101018.09
2022-08-22T07:28:51.464Z,101021.00
2022-08-22T07:30:10.756Z,101014.53
2022-08-22T07:31:05.350Z,101018.03
2022-08-22T07:31:57.464Z,101017.69
2022-08-22T07:33:25.880Z,101024.09
2022-08-22T07:34:19.904Z,101032.38
2022-08-22T07:35:36.083Z,101023.94
2022-08-22T07:36:41.337Z,101017.78
2022-08-22T07:37:48.461Z,101018.16
2022-08-22T07:38:44.993Z,101034.69
2022-08-22T07:39:55.116Z,101008.13
2022-08-22T07:41:09.764Z,101034.00
2022-08-22T07:42:15.064Z,101023.94
2022-08-22T07:43:19.831Z,101004.09
2022-08-22T07:44:21.445Z,101015.78
2022-08-22T07:45:17.439Z,101034.44
2022-08-22T07:46:03.946Z,101030.38
2022-08-22T07:47:00.584Z,101019.16
2022-08-22T07:48:02.894Z,101039.81
2022-08-22T07:49:16.441Z,101042.78
2022-08-22T07:50:08.325Z,101042.78
2022-08-22T07:51:12.253Z,101039.81
2022-08-22T07:52:07.974Z,101020.28
2022-08-22T07:53:04.987Z,101045.06
2022-08-22T07:54:09.640Z,101040.22
2022-08-22T07:55:09.041Z,101040.41
2022-08-22T07:55:59.483Z,101013.16
2022-08-22T07:57:21.083Z,101040.81
2022-08-22T07:58:11.193Z,101052.63
2022-08-22T07:59:14.353Z,101020.03
2022-08-22T08:00:10.946Z,101023.81
2022-08-22T08:01:02.952Z,101026.06
2022-08-22T08:01:54.709Z,101033.41
2022-08-22T08:02:50.986Z,101030.56
2022-08-22T08:03:39.190Z,101017.91
2022-08-22T08:04:40.177Z,101019.31
2022-08-22T08:05:32.573Z,101021.03
2022-08-22T08:06:23.352Z,101019.66
2022-08-22T08:07:22.567Z,101041.19
2022-08-22T08:08:31.807Z,101021.28
2022-08-22T08:09:20.313Z,101041.56
2022-08-22T08:10:14.331Z,101024.66
2022-08-22T08:11:03.472Z,101042.16
2022-08-22T08:11:53.999Z,101034.16
2022-08-22T08:12:57.942Z,101038.47
2022-08-22T08:14:01.453Z,101024.53
2022-08-22T08:14:54.880Z,101031.97
2022-08-22T08:15:45.740Z,101011.75
2022-08-22T08:16:44.107Z,101005.53
2022-08-22T08:17:35.429Z,101031.25
2022-08-22T08:18:32.094Z,101029.06
2022-08-22T08:19:23.297Z,101014.81
2022-08-22T08:20:19.659Z,101005.34
2022-08-22T08:21:10.660Z,101005.34
2022-08-22T08:21:59.291Z,101012.44
2022-08-22T08:22:48.505Z,101001.84
2022-08-22T08:23:44.778Z,101008.16
2022-08-22T08:24:40.475Z,101001.44
2022-08-22T08:25:36.832Z,101023.84
2022-08-22T08:26:39.928Z,101021.94
2022-08-22T08:27:53.361Z,101008.03
2022-08-22T08:28:48.334Z,101015.72
2022-08-22T08:29:36.953Z,101003.72
2022-08-22T08:30:43.146Z,100994.03
2022-08-22T08:31:43.313Z,100993.91
2022-08-22T08:32:38.023Z,101003.72
2022-08-22T08:33:29.131Z,101009.91
2022-08-22T08:34:30.576Z,101003.69
2022-08-22T08:35:28.209Z,101003.38
2022-08-22T08:36:35.947Z,101007.13
2022-08-22T08:37:44.645Z,101002.50
2022-08-22T08:39:01.221Z,101005.91
2022-08-22T08:39:53.310Z,101013.22
2022-08-22T08:41:18.644Z,101009.16
2022-08-22T08:42:57.972Z,101008.66
2022-08-22T08:44:03.894Z,100994.34
2022-08-22T08:45:28.926Z,101001.63
2022-08-22T08:46:55.674Z,100985.84
2022-08-22T08:47:59.225Z,100992.34
2022-08-22T08:49:14.169Z,100990.22
2022-08-22T08:50:38.906Z,101001.44
2022-08-22T08:51:56.318Z,101004.41
2022-08-22T08:53:16.953Z,100993.84
2022-08-22T08:54:26.254Z,100995.44
2022-08-22T08:55:38.377Z,101000.16
2022-08-22T08:56:38.190Z,100976.06
2022-08-22T08:58:06.952Z,100989.53
2022-08-22T08:59:21.602Z,100986.38
2022-08-22T09:00:17.008Z,100984.63
2022-08-22T09:01:50.208Z,101002.06
2022-08-22T09:02:53.317Z,100990.78
2022-08-22T09:04:15.324Z,100990.56
2022-08-22T09:05:55.682Z,100974.94
2022-08-22T09:07:09.660Z,100978.44
2022-08-22T09:08:16.925Z,100971.41
2022-08-22T09:09:14.211Z,100986.00
2022-08-22T09:12:01.550Z,100984.94
2022-08-22T09:13:12.431Z,100985.44
2022-08-22T09:14:27.547Z,100966.00
2022-08-22T09:15:40.596Z,100977.53
2022-08-22T09:16:46.244Z,100974.56
2022-08-22T09:17:50.632Z,100982.13
2022-08-22T09:19:02.960Z,100983.44
2022-08-22T09:21:53.195Z,100977.22
2022-08-22T09:23:16.337Z,100979.47
2022-08-22T09:24:27.627Z,100968.78
2022-08-22T09:25:38.725Z,100974.84
2022-08-22T09:26:39.782Z,100959.66
2022-08-22T09:27:29.831Z,100975.97
2022-08-22T09:28:42.712Z,100973.56
2022-08-22T09:29:55.230Z,100971.88
2022-08-22T09:31:16.778Z,100968.19
2022-08-22T09:32:36.999Z,100969.63
2022-08-22T09:33:38.549Z,100969.13
2022-08-22T09:34:45.355Z,100973.34
2022-08-22T09:35:46.673Z,100973.13
2022-08-22T09:37:08.451Z,100963.34
2022-08-22T09:38:32.596Z,100954.91
2022-08-22T09:39:55.537Z,100948.44
2022-08-22T09:40:15.394Z,100980.88
2022-08-22T09:41:12.948Z,100965.81
2022-08-22T09:42:20.271Z,100946.00
2022-08-22T09:43:30.587Z,100940.75
2022-08-22T09:44:59.635Z,100952.47
2022-08-22T09:46:09.596Z,100953.91
2022-08-22T09:47:16.527Z,100953.78
2022-08-22T09:48:51.451Z,100960.22
2022-08-22T09:49:59.621Z,100943.41
2022-08-22T09:51:04.713Z,100930.22
2022-08-22T09:52:35.882Z,100951.88
2022-08-22T09:53:45.028Z,100949.16
2022-08-22T09:54:48.508Z,100933.09
2022-08-22T09:56:00.311Z,100949.63
2022-08-22T09:57:22.678Z,100950.75
2022-08-22T09:58:41.802Z,100943.78
2022-08-22T09:59:49.082Z,100950.31
2022-08-22T10:00:47.161Z,100943.75
2022-08-22T10:01:56.151Z,100949.63
2022-08-22T10:03:04.280Z,100947.09
2022-08-22T10:04:28.117Z,100954.91
2022-08-22T10:05:38.496Z,100949.16
2022-08-22T10:06:44.941Z,100947.03
2022-08-22T10:07:54.969Z,100950.84
2022-08-22T10:09:25.236Z,100926.13
2022-08-22T10:10:55.369Z,100939.88
2022-08-22T10:12:00.228Z,100938.63
2022-08-22T10:13:03.920Z,100925.22
2022-08-22T10:14:08.498Z,100939.44
2022-08-22T10:15:06.907Z,100922.41
2022-08-22T10:15:56.673Z,100947.91
2022-08-22T10:16:55.120Z,100935.81
2022-08-22T10:18:02.888Z,100935.69
2022-08-22T10:19:09.315Z,100940.47
2022-08-22T10:20:28.211Z,100937.06
2022-08-22T10:21:35.289Z,100939.25
2022-08-22T10:23:09.587Z,100932.69
2022-08-22T10:24:27.314Z,100919.81
2022-08-22T10:25:33.991Z,100930.84
2022-08-22T10:26:47.486Z,100915.66
2022-08-22T10:27:48.133Z,100931.91
2022-08-22T10:28:34.695Z,100924.47
2022-08-22T10:30:02.143Z,100929.50
2022-08-22T10:31:02.033Z,100914.41
2022-08-22T10:31:58.909Z,100929.44
2022-08-22T10:33:00.529Z,100911.59
2022-08-22T10:34:29.321Z,100928.59
2022-08-22T10:35:33.973Z,100927.25
2022-08-22T10:36:53.853Z,100922.56
2022-08-22T10:38:06.889Z,100919.09
2022-08-22T10:39:02.068Z,100912.34
2022-08-22T10:40:26.024Z,100907.91
2022-08-22T10:41:25.932Z,100921.00
2022-08-22T10:42:27.988Z,100896.81
2022-08-22T10:43:29.157Z,100905.03
2022-08-22T10:44:19.587Z,100909.69
2022-08-22T10:45:23.782Z,100916.59
2022-08-22T10:46:35.732Z,100904.25
2022-08-22T10:47:34.816Z,100911.53
2022-08-22T10:48:34.995Z,100895.44
2022-08-22T10:49:33.033Z,100916.53
2022-08-22T10:50:31.033Z,100921.47
2022-08-22T10:51:32.216Z,100928.19
2022-08-22T10:52:25.547Z,100919.50
2022-08-22T10:53:37.328Z,100928.75
2022-08-22T10:54:43.434Z,100904.94
2022-08-22T10:55:30.829Z,100905.19
2022-08-22T10:57:00.130Z,100926.63
2022-08-22T10:58:05.061Z,100928.28
2022-08-22T10:59:16.281Z,100919.72
2022-08-22T11:00:31.139Z,100915.00
2022-08-22T11:01:41.016Z,100919.50
2022-08-22T11:02:54.906Z,100901.13
2022-08-22T11:03:52.946Z,100924.44
2022-08-22T11:04:55.797Z,100921.38
2022-08-22T11:05:47.781Z,100904.34
2022-08-22T11:06:39.917Z,100916.25
2022-08-22T11:08:12.151Z,100909.31
2022-08-22T11:09:11.362Z,100909.06
2022-08-22T11:10:29.129Z,100916.53
2022-08-22T11:11:36.434Z,100914.00
2022-08-22T11:12:36.465Z,100914.31
2022-08-22T11:13:42.303Z,100906.66
2022-08-22T11:14:37.962Z,100908.94
2022-08-22T11:16:04.557Z,100913.09
2022-08-22T11:17:34.651Z,100907.06
2022-08-22T11:19:03.050Z,100901.63
2022-08-22T11:20:16.091Z,100909.94
2022-08-22T11:21:27.374Z,100894.13
2022-08-22T11:22:39.980Z,100895.94
2022-08-22T11:23:44.513Z,100897.13
2022-08-22T11:25:08.902Z,100910.41
2022-08-22T11:26:14.997Z,100912.84
2022-08-22T11:27:46.568Z,100902.78
2022-08-22T11:28:39.035Z,100907.88
2022-08-22T11:29:48.602Z,100897.78
2022-08-22T11:31:00.712Z,100897.84
2022-08-22T11:32:05.819Z,100905.94
2022-08-22T11:33:46.178Z,100910.31
2022-08-22T11:35:00.498Z,100906.84
2022-08-22T11:36:06.874Z,100899.22
2022-08-22T11:37:20.214Z,100891.09
2022-08-22T11:38:54.325Z,100892.53
2022-08-22T11:39:49.518Z,100885.84
2022-08-22T11:40:39.060Z,100900.53
2022-08-22T11:41:52.222Z,100898.44
2022-08-22T11:43:16.403Z,100891.38
2022-08-22T11:44:34.482Z,100889.88
2022-08-22T11:45:35.053Z,100877.16
2022-08-22T11:46:36.082Z,100888.63
2022-08-22T11:47:29.398Z,100890.56
2022-08-22T11:48:37.226Z,100881.38
2022-08-22T11:49:34.940Z,100880.59
2022-08-22T11:50:42.253Z,100875.59
2022-08-22T11:51:57.275Z,100878.94
2022-08-22T11:53:07.590Z,100884.25
2022-08-22T11:54:13.647Z,100872.66
2022-08-22T11:55:34.550Z,100879.97
2022-08-22T11:56:52.292Z,100863.25
2022-08-22T11:58:03.162Z,100882.66
2022-08-22T11:59:22.749Z,100867.84
2022-08-22T12:00:23.177Z,100885.84
2022-08-22T12:01:27.104Z,100892.25
2022-08-22T12:02:39.080Z,100884.75
2022-08-22T12:03:58.121Z,100888.22
2022-08-22T12:04:58.363Z,100886.69
2022-08-22T12:05:48.828Z,100887.53
2022-08-22T12:07:16.075Z,100884.50
2022-08-22T12:08:21.225Z,100886.81
2022-08-22T12:09:18.037Z,100870.13
2022-08-22T12:10:20.591Z,100880.78
2022-08-22T12:11:26.980Z,100872.84
2022-08-22T12:12:37.846Z,100882.00
2022-08-22T12:13:50.345Z,100872.75
2022-08-22T12:14:48.893Z,100878.88
2022-08-22T12:16:06.686Z,100880.66
2022-08-22T12:17:50.616Z,100877.50
2022-08-22T12:18:45.710Z,100875.66